createdAt,value
2018-07-01T00:02:23.813Z,8.73
2018-07-01T00:07:19.517Z,7.53
2018-07-01T00:12:14.839Z,8.50
2018-07-01T00:17:10.164Z,8.10
2018-07-01T00:22:05.456Z,9.13
2018-07-01T00:27:00.846Z,9.00
2018-07-01T00:31:56.113Z,8.37
2018-07-01T00:36:51.963Z,8.57
2018-07-01T00:41:50.149Z,8.47
2018-07-01T00:46:45.841Z,8.73
2018-07-01T00:51:41.409Z,8.03
2018-07-01T00:56:36.723Z,8.40
2018-07-01T01:01:32.091Z,7.90
2018-07-01T01:06:27.350Z,8.47
2018-07-01T01:11:22.854Z,8.57
2018-07-01T01:16:18.086Z,8.17
2018-07-01T01:21:13.348Z,8.80
2018-07-01T01:26:08.823Z,8.40
2018-07-01T01:31:03.801Z,8.13
2018-07-01T01:35:59.220Z,8.33
2018-07-01T01:41:01.070Z,7.60
2018-07-01T01:46:02.542Z,7.17
2018-07-01T01:52:03.567Z,7.30
2018-07-01T01:57:03.814Z,6.50
2018-07-01T02:02:05.971Z,6.03
2018-07-01T02:07:05.149Z,5.40
2018-07-01T02:12:01.776Z,5.47
2018-07-01T02:16:59.812Z,5.80
2018-07-01T02:21:55.947Z,5.03
2018-07-01T02:26:51.144Z,4.80
2018-07-01T02:31:47.547Z,4.53
2018-07-01T02:36:42.800Z,4.57
2018-07-01T02:41:38.223Z,3.90
2018-07-01T02:46:33.655Z,3.60
2018-07-01T02:51:30.050Z,3.80
2018-07-01T02:56:24.938Z,3.60
2018-07-01T03:01:19.742Z,2.77
2018-07-01T03:06:16.076Z,2.70
2018-07-01T03:11:11.349Z,2.60
2018-07-01T03:16:06.615Z,2.50
2018-07-01T03:21:01.883Z,2.37
2018-07-01T03:25:57.233Z,2.60
2018-07-01T03:30:52.451Z,2.30
2018-07-01T03:35:47.780Z,2.30
2018-07-01T03:40:43.123Z,2.03
2018-07-01T03:45:39.353Z,2.30
2018-07-01T03:50:34.566Z,2.33
2018-07-01T03:55:29.855Z,2.00
2018-07-01T04:00:26.014Z,2.03
2018-07-01T04:05:21.693Z,1.67
2018-07-01T04:10:17.318Z,1.90
2018-07-01T04:15:12.952Z,1.90
2018-07-01T04:20:08.560Z,1.40
2018-07-01T04:25:04.151Z,1.53
2018-07-01T04:29:59.642Z,1.80
2018-07-01T04:34:55.246Z,1.70
2018-07-01T04:39:51.746Z,1.87
2018-07-01T04:44:48.353Z,1.57
2018-07-01T04:49:43.501Z,1.77
2018-07-01T04:54:38.809Z,1.50
2018-07-01T04:59:33.949Z,1.30
2018-07-01T05:04:29.020Z,1.60
2018-07-01T05:09:24.090Z,1.27
2018-07-01T05:14:19.234Z,1.55
2018-07-01T05:19:14.168Z,1.37
2018-07-01T05:24:09.085Z,1.45
2018-07-01T05:29:04.135Z,1.20
2018-07-01T05:33:59.059Z,1.22
2018-07-01T05:38:53.899Z,1.40
2018-07-01T05:43:48.715Z,1.30
2018-07-01T05:48:43.625Z,1.27
2018-07-01T05:53:38.436Z,1.35
2018-07-01T05:58:33.325Z,1.40
2018-07-01T06:03:28.213Z,1.65
2018-07-01T06:08:22.920Z,1.50
2018-07-01T06:13:17.894Z,1.60
2018-07-01T06:18:12.785Z,1.30
2018-07-01T06:23:07.792Z,1.37
2018-07-01T06:28:02.821Z,1.42
2018-07-01T06:32:57.489Z,1.57
2018-07-01T06:37:52.000Z,1.22
2018-07-01T06:42:46.857Z,1.70
2018-07-01T06:47:41.632Z,1.75
2018-07-01T06:52:36.616Z,1.70
2018-07-01T06:57:31.599Z,1.80
2018-07-01T07:02:26.512Z,1.90
2018-07-01T07:07:21.357Z,2.00
2018-07-01T07:12:16.283Z,2.10
2018-07-01T07:17:11.304Z,1.83
2018-07-01T07:22:06.533Z,1.80
2018-07-01T07:27:01.333Z,1.80
2018-07-01T07:31:56.389Z,2.10
2018-07-01T07:36:51.481Z,1.98
2018-07-01T07:41:46.440Z,1.75
2018-07-01T07:46:41.397Z,2.00
2018-07-01T07:51:36.435Z,2.20
2018-07-01T07:56:31.413Z,2.15
2018-07-01T08:01:26.564Z,2.10
2018-07-01T08:06:21.999Z,2.30
2018-07-01T08:11:17.186Z,2.30
2018-07-01T08:16:12.484Z,2.37
2018-07-01T08:21:07.774Z,2.42
2018-07-01T08:26:03.044Z,2.60
2018-07-01T08:30:58.590Z,2.87
2018-07-01T08:35:54.229Z,2.62
2018-07-01T08:40:49.633Z,2.70
2018-07-01T08:45:44.881Z,2.20
2018-07-01T08:50:40.127Z,2.10
2018-07-01T08:55:35.283Z,2.72
2018-07-01T09:00:30.515Z,2.30
2018-07-01T09:05:25.817Z,2.42
2018-07-01T09:10:21.386Z,2.15
2018-07-01T09:15:16.678Z,2.37
2018-07-01T09:20:12.495Z,2.60
2018-07-01T09:25:07.956Z,2.30
2018-07-01T09:30:03.910Z,2.50
2018-07-01T09:35:06.315Z,3.00
2018-07-01T09:40:02.691Z,2.80
2018-07-01T09:44:57.974Z,3.45
2018-07-01T09:49:53.453Z,2.60
2018-07-01T09:54:49.483Z,2.83
2018-07-01T10:00:47.543Z,2.75
2018-07-01T10:05:42.929Z,3.05
2018-07-01T10:10:38.275Z,2.85
2018-07-01T10:15:33.734Z,3.02
2018-07-01T10:20:29.167Z,2.80
2018-07-01T10:36:45.617Z,2.95
2018-07-01T10:41:42.082Z,3.15
2018-07-01T10:46:37.476Z,3.10
2018-07-01T10:51:34.165Z,3.47
2018-07-01T10:56:29.581Z,3.05
2018-07-01T11:01:26.313Z,3.45
2018-07-01T11:06:23.436Z,3.25
2018-07-01T11:11:19.920Z,3.15
2018-07-01T11:16:15.432Z,3.37
2018-07-01T11:21:10.595Z,3.30
2018-07-01T11:26:05.527Z,3.00
2018-07-01T11:31:01.475Z,3.20
2018-07-01T11:35:56.685Z,2.90
2018-07-01T11:40:52.748Z,3.60
2018-07-01T11:45:51.123Z,3.37
2018-07-01T11:50:46.541Z,3.17
2018-07-01T11:55:42.275Z,3.35
2018-07-01T12:00:37.589Z,3.22
2018-07-01T12:05:33.385Z,3.02
2018-07-01T12:10:28.637Z,2.92
2018-07-01T12:15:23.981Z,3.15
2018-07-01T12:20:19.486Z,2.98
2018-07-01T12:25:15.199Z,3.02
2018-07-01T12:30:12.099Z,2.77
2018-07-01T12:35:07.651Z,3.20
2018-07-01T12:40:02.784Z,2.98
2018-07-01T12:44:58.151Z,2.90
2018-07-01T12:49:53.366Z,3.08
2018-07-01T12:54:48.608Z,2.90
2018-07-01T12:59:44.519Z,2.95
2018-07-01T13:04:39.950Z,2.92
2018-07-01T13:09:35.762Z,2.80
2018-07-01T13:14:31.019Z,3.20
2018-07-01T13:19:26.528Z,3.10
2018-07-01T13:24:21.733Z,3.10
2018-07-01T13:29:17.324Z,2.75
2018-07-01T13:34:12.447Z,2.90
2018-07-01T13:39:11.709Z,2.80
2018-07-01T13:44:08.321Z,2.77
2018-07-01T13:49:03.946Z,2.77
2018-07-01T13:53:59.772Z,2.58
2018-07-01T13:58:55.159Z,2.40
2018-07-01T14:03:50.530Z,2.60
2018-07-01T14:08:46.535Z,2.70
2018-07-01T14:13:41.912Z,2.67
2018-07-01T14:18:37.223Z,2.37
2018-07-01T14:23:33.640Z,2.50
2018-07-01T14:28:29.768Z,2.37
2018-07-01T14:33:27.117Z,2.42
2018-07-01T14:38:23.493Z,2.52
2018-07-01T14:43:19.662Z,2.37
2018-07-01T14:48:15.383Z,2.40
2018-07-01T14:53:10.725Z,2.42
2018-07-01T14:58:06.111Z,2.20
2018-07-01T15:03:01.553Z,2.33
2018-07-01T15:07:57.036Z,2.30
2018-07-01T15:12:52.830Z,2.17
2018-07-01T15:17:48.388Z,2.10
2018-07-01T15:22:43.735Z,2.30
2018-07-01T15:27:39.203Z,2.00
2018-07-01T15:32:35.966Z,2.15
2018-07-01T15:37:34.050Z,2.15
2018-07-01T15:42:30.312Z,2.45
2018-07-01T15:47:27.580Z,2.05
2018-07-01T15:52:23.665Z,2.30
2018-07-01T15:57:22.302Z,2.10
2018-07-01T16:02:19.008Z,1.85
2018-07-01T16:07:15.723Z,1.92
2018-07-01T16:12:11.523Z,2.00
2018-07-01T16:17:07.319Z,1.87
2018-07-01T16:22:02.807Z,2.22
2018-07-01T16:27:03.945Z,2.20
2018-07-01T16:32:01.233Z,2.12
2018-07-01T16:37:04.090Z,2.02
2018-07-01T16:41:59.422Z,1.95
2018-07-01T16:46:54.703Z,2.10
2018-07-01T16:51:50.071Z,1.90
2018-07-01T16:56:46.541Z,1.90
2018-07-01T17:01:41.928Z,2.25
2018-07-01T17:06:37.438Z,1.90
2018-07-01T17:11:33.996Z,1.92
2018-07-01T17:16:30.090Z,2.15
2018-07-01T17:21:25.357Z,2.17
2018-07-01T17:26:20.418Z,2.20
2018-07-01T17:33:29.094Z,2.00
2018-07-01T17:38:24.838Z,2.10
2018-07-01T17:43:19.967Z,1.90
2018-07-01T17:48:15.276Z,1.80
2018-07-01T17:54:19.213Z,2.10
2018-07-01T17:59:14.993Z,2.25
2018-07-01T18:04:10.954Z,2.22
2018-07-01T18:09:08.525Z,2.15
2018-07-01T18:14:03.856Z,2.10
2018-07-01T18:18:59.804Z,2.35
2018-07-01T18:24:27.545Z,2.00
2018-07-01T18:28:59.161Z,1.98
2018-07-01T18:33:45.899Z,2.40
2018-07-01T18:38:41.083Z,1.80
2018-07-01T18:43:37.938Z,1.77
2018-07-01T18:48:33.202Z,2.00
2018-07-01T18:53:28.529Z,1.92
2018-07-01T18:58:24.928Z,2.20
2018-07-01T19:03:21.667Z,2.10
2018-07-01T19:08:18.063Z,1.82
2018-07-01T19:13:13.513Z,1.98
2018-07-01T19:18:09.086Z,1.98
2018-07-01T19:24:33.795Z,1.62
2018-07-01T19:29:29.110Z,2.30
2018-07-01T19:34:24.259Z,1.70
2018-07-01T19:39:20.307Z,1.60
2018-07-01T19:44:15.665Z,1.90
2018-07-01T19:49:11.065Z,1.53
2018-07-01T19:54:06.440Z,1.80
2018-07-01T19:59:01.750Z,1.50
2018-07-01T20:03:58.059Z,1.60
2018-07-01T20:08:53.577Z,1.53
2018-07-01T20:13:48.708Z,1.53
2018-07-01T20:18:44.042Z,1.73
2018-07-01T20:23:39.431Z,1.33
2018-07-01T20:28:34.669Z,1.40
2018-07-01T20:33:30.976Z,1.20
2018-07-01T20:38:32.610Z,1.17
2018-07-01T20:44:57.935Z,1.00
2018-07-01T20:49:53.372Z,1.10
2018-07-01T20:54:48.343Z,1.33
2018-07-01T20:59:43.638Z,0.93
2018-07-01T21:04:39.303Z,1.20
2018-07-01T21:09:40.336Z,1.47
2018-07-01T21:14:35.591Z,0.90
2018-07-01T21:19:36.723Z,1.00
2018-07-01T21:24:32.341Z,1.20
2018-07-01T21:29:27.700Z,1.10
2018-07-01T21:35:52.508Z,1.03
2018-07-01T21:40:49.285Z,1.40
2018-07-01T21:45:44.934Z,1.10
2018-07-01T21:50:40.126Z,1.37
2018-07-01T21:55:35.475Z,1.40
2018-07-01T22:00:31.541Z,1.03
2018-07-01T22:05:28.006Z,1.07
2018-07-01T22:10:39.677Z,1.20
2018-07-01T22:15:51.238Z,1.00
2018-07-01T22:20:46.684Z,0.87
2018-07-01T22:25:41.588Z,0.90
2018-07-01T22:30:37.035Z,1.00
2018-07-01T22:35:32.360Z,1.00
2018-07-01T22:40:27.741Z,1.03
2018-07-01T22:45:23.065Z,1.03
2018-07-01T22:50:18.067Z,0.93
2018-07-01T22:55:13.316Z,0.90
2018-07-01T23:00:08.841Z,1.00
2018-07-01T23:05:04.013Z,0.97
2018-07-01T23:09:59.122Z,1.27
2018-07-01T23:14:54.051Z,1.00
2018-07-01T23:19:49.355Z,1.27
2018-07-01T23:24:44.693Z,1.10
2018-07-01T23:29:39.904Z,1.13
2018-07-01T23:34:35.198Z,1.33
2018-07-01T23:39:30.591Z,1.07
2018-07-01T23:44:26.001Z,1.30
2018-07-01T23:49:21.094Z,1.17
2018-07-01T23:54:16.720Z,1.20
2018-07-01T23:59:11.992Z,1.00
